sensor_id;sensor_type;location;lat;lon;timestamp;temperature;humidity
10304;DHT22;5197;48.152;8.590;2023-08-06T00:01:47;14.10;3.70
10304;DHT22;5197;48.152;8.590;2023-08-06T00:04:14;14.60;3.90
10304;DHT22;5197;48.152;8.590;2023-08-06T00:06:40;15.10;4.00
10304;DHT22;5197;48.152;8.590;2023-08-06T00:09:07;14.00;3.30
10304;DHT22;5197;48.152;8.590;2023-08-06T00:11:35;14.00;3.40
10304;DHT22;5197;48.152;8.590;2023-08-06T00:14:01;14.50;4.00
10304;DHT22;5197;48.152;8.590;2023-08-06T00:16:28;15.80;4.90
10304;DHT22;5197;48.152;8.590;2023-08-06T00:18:55;14.00;3.60
10304;DHT22;5197;48.152;8.590;2023-08-06T00:21:22;14.00;3.70
10304;DHT22;5197;48.152;8.590;2023-08-06T00:23:49;13.90;3.70
10304;DHT22;5197;48.152;8.590;2023-08-06T00:26:16;15.50;4.90
10304;DHT22;5197;48.152;8.590;2023-08-06T00:28:42;13.90;4.20
10304;DHT22;5197;48.152;8.590;2023-08-06T00:31:09;13.80;4.10
10304;DHT22;5197;48.152;8.590;2023-08-06T00:33:36;13.80;4.20
10304;DHT22;5197;48.152;8.590;2023-08-06T00:36:03;13.80;4.20
10304;DHT22;5197;48.152;8.590;2023-08-06T00:38:30;15.30;5.50
10304;DHT22;5197;48.152;8.590;2023-08-06T00:40:56;13.80;4.80
10304;DHT22;5197;48.152;8.590;2023-08-06T00:43:23;13.80;5.10
10304;DHT22;5197;48.152;8.590;2023-08-06T00:45:50;13.80;5.50
10304;DHT22;5197;48.152;8.590;2023-08-06T00:48:17;14.50;6.10
10304;DHT22;5197;48.152;8.590;2023-08-06T00:50:45;14.50;6.20
10304;DHT22;5197;48.152;8.590;2023-08-06T00:53:12;13.90;6.00
10304;DHT22;5197;48.152;8.590;2023-08-06T00:55:39;13.90;6.00
10304;DHT22;5197;48.152;8.590;2023-08-06T00:58:06;13.90;6.10
10304;DHT22;5197;48.152;8.590;2023-08-06T01:00:36;14.80;6.90
10304;DHT22;5197;48.152;8.590;2023-08-06T01:03:04;14.40;6.50
10304;DHT22;5197;48.152;8.590;2023-08-06T01:05:31;14.00;6.40
10304;DHT22;5197;48.152;8.590;2023-08-06T01:08:25;13.90;6.60
10304;DHT22;5197;48.152;8.590;2023-08-06T01:13:46;13.90;7.60
10304;DHT22;5197;48.152;8.590;2023-08-06T01:16:19;13.90;6.60
10304;DHT22;5197;48.152;8.590;2023-08-06T01:18:48;13.80;6.50
10304;DHT22;5197;48.152;8.590;2023-08-06T01:21:16;13.80;6.60
10304;DHT22;5197;48.152;8.590;2023-08-06T01:23:44;14.40;7.00
10304;DHT22;5197;48.152;8.590;2023-08-06T01:26:30;13.70;6.60
10304;DHT22;5197;48.152;8.590;2023-08-06T01:29:21;13.70;6.40
10304;DHT22;5197;48.152;8.590;2023-08-06T01:31:51;13.20;6.30
10304;DHT22;5197;48.152;8.590;2023-08-06T01:34:28;15.70;8.30
10304;DHT22;5197;48.152;8.590;2023-08-06T01:36:58;13.60;6.70
10304;DHT22;5197;48.152;8.590;2023-08-06T01:39:26;13.60;7.20
10304;DHT22;5197;48.152;8.590;2023-08-06T01:41:52;13.70;7.20
10304;DHT22;5197;48.152;8.590;2023-08-06T01:44:20;13.40;7.40
10304;DHT22;5197;48.152;8.590;2023-08-06T01:46:46;13.40;7.60
10304;DHT22;5197;48.152;8.590;2023-08-06T01:49:13;13.40;7.80
10304;DHT22;5197;48.152;8.590;2023-08-06T01:51:40;14.40;8.90
10304;DHT22;5197;48.152;8.590;2023-08-06T01:54:07;12.00;7.20
10304;DHT22;5197;48.152;8.590;2023-08-06T01:56:34;15.40;9.90
10304;DHT22;5197;48.152;8.590;2023-08-06T01:59:01;13.30;8.60
10304;DHT22;5197;48.152;8.590;2023-08-06T02:01:30;13.30;8.70
10304;DHT22;5197;48.152;8.590;2023-08-06T02:03:57;13.20;9.00
10304;DHT22;5197;48.152;8.590;2023-08-06T02:06:24;13.20;9.20
10304;DHT22;5197;48.152;8.590;2023-08-06T02:08:51;13.20;9.40
10304;DHT22;5197;48.152;8.590;2023-08-06T02:11:18;15.10;10.90
10304;DHT22;5197;48.152;8.590;2023-08-06T02:13:46;13.20;9.70
10304;DHT22;5197;48.152;8.590;2023-08-06T02:16:13;13.20;9.90
10304;DHT22;5197;48.152;8.590;2023-08-06T02:18:39;13.10;10.00
10304;DHT22;5197;48.152;8.590;2023-08-06T02:21:06;13.10;10.10
10304;DHT22;5197;48.152;8.590;2023-08-06T02:23:33;13.40;10.50
10304;DHT22;5197;48.152;8.590;2023-08-06T02:26:02;13.20;10.40
10304;DHT22;5197;48.152;8.590;2023-08-06T02:28:30;13.10;10.40
10304;DHT22;5197;48.152;8.590;2023-08-06T02:30:57;13.10;11.50
10304;DHT22;5197;48.152;8.590;2023-08-06T02:33:24;13.20;10.80
10304;DHT22;5197;48.152;8.590;2023-08-06T02:35:59;13.70;11.30
10304;DHT22;5197;48.152;8.590;2023-08-06T02:38:27;13.20;10.90
10304;DHT22;5197;48.152;8.590;2023-08-06T02:40:53;13.20;11.00
10304;DHT22;5197;48.152;8.590;2023-08-06T02:43:20;13.30;11.00
10304;DHT22;5197;48.152;8.590;2023-08-06T02:45:47;13.30;11.00
10304;DHT22;5197;48.152;8.590;2023-08-06T02:48:14;13.30;11.10
10304;DHT22;5197;48.152;8.590;2023-08-06T02:50:41;13.30;11.10
10304;DHT22;5197;48.152;8.590;2023-08-06T02:53:08;13.30;11.10
10304;DHT22;5197;48.152;8.590;2023-08-06T02:55:35;13.40;11.50
10304;DHT22;5197;48.152;8.590;2023-08-06T02:58:02;14.90;12.80
10304;DHT22;5197;48.152;8.590;2023-08-06T03:00:29;15.20;12.90
10304;DHT22;5197;48.152;8.590;2023-08-06T03:02:56;13.30;11.60
10304;DHT22;5197;48.152;8.590;2023-08-06T03:05:23;15.20;13.30
10304;DHT22;5197;48.152;8.590;2023-08-06T03:07:50;13.30;12.30
10304;DHT22;5197;48.152;8.590;2023-08-06T03:10:17;13.30;12.60
10304;DHT22;5197;48.152;8.590;2023-08-06T03:12:44;14.00;13.20
10304;DHT22;5197;48.152;8.590;2023-08-06T03:15:11;13.30;13.10
10304;DHT22;5197;48.152;8.590;2023-08-06T03:17:38;13.30;13.40
10304;DHT22;5197;48.152;8.590;2023-08-06T03:20:05;13.30;13.50
10304;DHT22;5197;48.152;8.590;2023-08-06T03:22:33;13.30;13.70
10304;DHT22;5197;48.152;8.590;2023-08-06T03:24:59;13.30;13.90
10304;DHT22;5197;48.152;8.590;2023-08-06T03:27:26;13.70;14.50
10304;DHT22;5197;48.152;8.590;2023-08-06T03:29:53;14.40;15.30
10304;DHT22;5197;48.152;8.590;2023-08-06T03:32:20;13.10;14.60
10304;DHT22;5197;48.152;8.590;2023-08-06T03:34:47;13.20;15.00
10304;DHT22;5197;48.152;8.590;2023-08-06T03:37:14;13.20;16.20
10304;DHT22;5197;48.152;8.590;2023-08-06T03:39:40;13.90;16.00
10304;DHT22;5197;48.152;8.590;2023-08-06T03:42:07;13.20;15.80
10304;DHT22;5197;48.152;8.590;2023-08-06T03:44:34;13.00;16.30
10304;DHT22;5197;48.152;8.590;2023-08-06T03:47:01;13.10;15.40
10304;DHT22;5197;48.152;8.590;2023-08-06T03:49:28;14.00;17.30
10304;DHT22;5197;48.152;8.590;2023-08-06T03:51:55;13.00;16.80
10304;DHT22;5197;48.152;8.590;2023-08-06T03:54:22;13.00;16.50
10304;DHT22;5197;48.152;8.590;2023-08-06T03:56:48;13.00;16.20
10304;DHT22;5197;48.152;8.590;2023-08-06T03:59:15;15.10;17.60
10304;DHT22;5197;48.152;8.590;2023-08-06T04:01:42;12.90;15.80
10304;DHT22;5197;48.152;8.590;2023-08-06T04:04:09;12.80;15.60
10304;DHT22;5197;48.152;8.590;2023-08-06T04:06:36;12.80;15.30
10304;DHT22;5197;48.152;8.590;2023-08-06T04:09:03;12.80;15.00
10304;DHT22;5197;48.152;8.590;2023-08-06T04:11:30;12.70;14.70
10304;DHT22;5197;48.152;8.590;2023-08-06T04:13:57;14.60;15.90
10304;DHT22;5197;48.152;8.590;2023-08-06T04:16:24;12.70;14.50
10304;DHT22;5197;48.152;8.590;2023-08-06T04:18:53;12.60;14.30
10304;DHT22;5197;48.152;8.590;2023-08-06T04:21:22;12.60;14.10
10304;DHT22;5197;48.152;8.590;2023-08-06T04:23:49;12.70;14.10
10304;DHT22;5197;48.152;8.590;2023-08-06T04:26:16;12.70;14.10
10304;DHT22;5197;48.152;8.590;2023-08-06T04:28:43;14.70;15.20
10304;DHT22;5197;48.152;8.590;2023-08-06T04:31:10;13.90;14.70
10304;DHT22;5197;48.152;8.590;2023-08-06T04:33:37;12.60;13.80
10304;DHT22;5197;48.152;8.590;2023-08-06T04:36:04;12.60;13.80
10304;DHT22;5197;48.152;8.590;2023-08-06T04:38:31;12.60;13.80
10304;DHT22;5197;48.152;8.590;2023-08-06T04:40:58;12.70;14.10
10304;DHT22;5197;48.152;8.590;2023-08-06T04:43:25;13.30;14.70
10304;DHT22;5197;48.152;8.590;2023-08-06T04:45:54;12.70;14.40
10304;DHT22;5197;48.152;8.590;2023-08-06T04:48:23;12.60;14.40
10304;DHT22;5197;48.152;8.590;2023-08-06T04:50:50;12.70;14.50
10304;DHT22;5197;48.152;8.590;2023-08-06T04:53:17;12.70;14.50
10304;DHT22;5197;48.152;8.590;2023-08-06T04:55:44;12.70;14.70
10304;DHT22;5197;48.152;8.590;2023-08-06T04:58:12;13.70;15.50
10304;DHT22;5197;48.152;8.590;2023-08-06T05:00:39;12.60;14.70
10304;DHT22;5197;48.152;8.590;2023-08-06T05:03:06;12.60;15.00
10304;DHT22;5197;48.152;8.590;2023-08-06T05:05:34;12.60;14.90
10304;DHT22;5197;48.152;8.590;2023-08-06T05:08:01;12.90;15.40
10304;DHT22;5197;48.152;8.590;2023-08-06T05:10:28;12.70;15.20
10304;DHT22;5197;48.152;8.590;2023-08-06T05:12:55;13.90;16.00
10304;DHT22;5197;48.152;8.590;2023-08-06T05:15:22;12.70;15.20
10304;DHT22;5197;48.152;8.590;2023-08-06T05:17:48;14.00;15.90
10304;DHT22;5197;48.152;8.590;2023-08-06T05:20:15;13.40;15.50
10304;DHT22;5197;48.152;8.590;2023-08-06T05:22:44;13.50;15.40
10304;DHT22;5197;48.152;8.590;2023-08-06T05:25:13;12.70;14.90
10304;DHT22;5197;48.152;8.590;2023-08-06T05:27:41;12.60;14.80
10304;DHT22;5197;48.152;8.590;2023-08-06T05:30:09;14.60;16.40
10304;DHT22;5197;48.152;8.590;2023-08-06T05:32:36;12.60;15.10
10304;DHT22;5197;48.152;8.590;2023-08-06T05:35:03;12.50;15.20
10304;DHT22;5197;48.152;8.590;2023-08-06T05:37:30;12.60;15.50
10304;DHT22;5197;48.152;8.590;2023-08-06T05:39:57;12.60;15.50
10304;DHT22;5197;48.152;8.590;2023-08-06T05:42:23;14.40;16.70
10304;DHT22;5197;48.152;8.590;2023-08-06T05:44:50;12.60;15.30
10304;DHT22;5197;48.152;8.590;2023-08-06T05:47:17;12.60;15.30
10304;DHT22;5197;48.152;8.590;2023-08-06T05:49:44;12.70;15.40
10304;DHT22;5197;48.152;8.590;2023-08-06T05:52:11;13.30;16.00
10304;DHT22;5197;48.152;8.590;2023-08-06T05:54:38;12.70;15.50
10304;DHT22;5197;48.152;8.590;2023-08-06T05:57:05;12.80;14.80
10304;DHT22;5197;48.152;8.590;2023-08-06T05:59:32;12.80;15.40
10304;DHT22;5197;48.152;8.590;2023-08-06T06:01:59;13.20;15.80
10304;DHT22;5197;48.152;8.590;2023-08-06T06:04:26;12.80;15.60
10304;DHT22;5197;48.152;8.590;2023-08-06T06:06:53;13.30;17.20
10304;DHT22;5197;48.152;8.590;2023-08-06T06:09:20;12.90;15.80
10304;DHT22;5197;48.152;8.590;2023-08-06T06:11:46;13.00;15.80
10304;DHT22;5197;48.152;8.590;2023-08-06T06:14:19;13.90;16.10
10304;DHT22;5197;48.152;8.590;2023-08-06T06:16:46;13.10;15.60
10304;DHT22;5197;48.152;8.590;2023-08-06T06:19:13;15.00;17.00
10304;DHT22;5197;48.152;8.590;2023-08-06T06:21:40;13.10;15.70
10304;DHT22;5197;48.152;8.590;2023-08-06T06:24:07;14.90;17.00
10304;DHT22;5197;48.152;8.590;2023-08-06T06:26:34;15.70;17.40
10304;DHT22;5197;48.152;8.590;2023-08-06T06:29:01;13.20;15.80
10304;DHT22;5197;48.152;8.590;2023-08-06T06:31:29;13.10;15.60
10304;DHT22;5197;48.152;8.590;2023-08-06T06:33:56;13.10;15.90
10304;DHT22;5197;48.152;8.590;2023-08-06T06:36:23;15.60;17.60
10304;DHT22;5197;48.152;8.590;2023-08-06T06:38:50;13.70;16.10
10304;DHT22;5197;48.152;8.590;2023-08-06T06:41:17;13.80;16.10
10304;DHT22;5197;48.152;8.590;2023-08-06T06:43:44;14.00;15.90
10304;DHT22;5197;48.152;8.590;2023-08-06T06:46:11;13.20;15.10
10304;DHT22;5197;48.152;8.590;2023-08-06T06:48:38;14.10;15.80
10304;DHT22;5197;48.152;8.590;2023-08-06T06:51:05;13.90;15.60
10304;DHT22;5197;48.152;8.590;2023-08-06T06:53:32;13.30;15.20
10304;DHT22;5197;48.152;8.590;2023-08-06T06:56:04;13.30;15.40
10304;DHT22;5197;48.152;8.590;2023-08-06T06:58:32;13.40;15.60
10304;DHT22;5197;48.152;8.590;2023-08-06T07:00:59;15.80;17.10
10304;DHT22;5197;48.152;8.590;2023-08-06T07:03:26;15.40;17.00
10304;DHT22;5197;48.152;8.590;2023-08-06T07:05:57;13.50;15.80
10304;DHT22;5197;48.152;8.590;2023-08-06T07:08:25;13.60;15.90
10304;DHT22;5197;48.152;8.590;2023-08-06T07:11:03;15.20;17.00
10304;DHT22;5197;48.152;8.590;2023-08-06T07:13:30;13.90;15.60
10304;DHT22;5197;48.152;8.590;2023-08-06T07:15:57;13.90;15.30
10304;DHT22;5197;48.152;8.590;2023-08-06T07:18:25;13.80;14.80
10304;DHT22;5197;48.152;8.590;2023-08-06T07:20:53;15.70;16.30
10304;DHT22;5197;48.152;8.590;2023-08-06T07:23:21;13.70;14.60
10304;DHT22;5197;48.152;8.590;2023-08-06T07:25:48;13.50;15.00
10304;DHT22;5197;48.152;8.590;2023-08-06T07:28:15;13.40;15.20
10304;DHT22;5197;48.152;8.590;2023-08-06T07:30:44;15.00;16.40
10304;DHT22;5197;48.152;8.590;2023-08-06T07:33:11;13.50;15.70
10304;DHT22;5197;48.152;8.590;2023-08-06T07:35:38;13.80;15.50
10304;DHT22;5197;48.152;8.590;2023-08-06T07:38:05;15.00;16.60
10304;DHT22;5197;48.152;8.590;2023-08-06T07:40:32;13.20;15.50
10304;DHT22;5197;48.152;8.590;2023-08-06T07:42:59;13.30;15.40
10304;DHT22;5197;48.152;8.590;2023-08-06T07:45:26;13.40;15.50
10304;DHT22;5197;48.152;8.590;2023-08-06T07:47:53;14.90;16.30
10304;DHT22;5197;48.152;8.590;2023-08-06T07:50:20;14.60;16.10
10304;DHT22;5197;48.152;8.590;2023-08-06T07:52:47;14.50;16.40
10304;DHT22;5197;48.152;8.590;2023-08-06T07:55:14;13.50;15.80
10304;DHT22;5197;48.152;8.590;2023-08-06T07:57:42;13.30;15.40
10304;DHT22;5197;48.152;8.590;2023-08-06T08:00:09;15.40;17.00
10304;DHT22;5197;48.152;8.590;2023-08-06T08:02:36;13.40;15.70
10304;DHT22;5197;48.152;8.590;2023-08-06T08:05:03;13.40;15.80
10304;DHT22;5197;48.152;8.590;2023-08-06T08:07:30;13.50;15.80
10304;DHT22;5197;48.152;8.590;2023-08-06T08:09:57;15.60;17.20
10304;DHT22;5197;48.152;8.590;2023-08-06T08:12:24;13.40;15.70
10304;DHT22;5197;48.152;8.590;2023-08-06T08:14:51;13.50;15.80
10304;DHT22;5197;48.152;8.590;2023-08-06T08:17:18;13.40;15.90
10304;DHT22;5197;48.152;8.590;2023-08-06T08:19:45;13.40;16.20
10304;DHT22;5197;48.152;8.590;2023-08-06T08:22:12;13.40;16.00
10304;DHT22;5197;48.152;8.590;2023-08-06T08:24:39;13.50;16.30
10304;DHT22;5197;48.152;8.590;2023-08-06T08:27:06;13.60;16.30
10304;DHT22;5197;48.152;8.590;2023-08-06T08:29:33;15.10;17.40
10304;DHT22;5197;48.152;8.590;2023-08-06T08:32:00;14.00;17.10
10304;DHT22;5197;48.152;8.590;2023-08-06T08:34:27;13.50;16.40
10304;DHT22;5197;48.152;8.590;2023-08-06T08:36:54;13.60;16.50
10304;DHT22;5197;48.152;8.590;2023-08-06T08:39:22;14.60;17.40
10304;DHT22;5197;48.152;8.590;2023-08-06T08:41:49;13.80;16.40
10304;DHT22;5197;48.152;8.590;2023-08-06T08:44:17;13.90;16.20
10304;DHT22;5197;48.152;8.590;2023-08-06T08:46:45;14.90;16.70
10304;DHT22;5197;48.152;8.590;2023-08-06T08:49:14;14.70;16.70
10304;DHT22;5197;48.152;8.590;2023-08-06T08:51:41;15.70;17.00
10304;DHT22;5197;48.152;8.590;2023-08-06T08:54:11;14.80;15.80
10304;DHT22;5197;48.152;8.590;2023-08-06T08:56:39;16.30;16.70
10304;DHT22;5197;48.152;8.590;2023-08-06T08:59:06;15.80;16.50
10304;DHT22;5197;48.152;8.590;2023-08-06T09:01:34;16.70;17.20
10304;DHT22;5197;48.152;8.590;2023-08-06T09:04:02;16.60;16.80
10304;DHT22;5197;48.152;8.590;2023-08-06T09:06:30;14.30;15.20
10304;DHT22;5197;48.152;8.590;2023-08-06T09:09:12;15.90;15.90
10304;DHT22;5197;48.152;8.590;2023-08-06T09:11:44;14.40;15.20
10304;DHT22;5197;48.152;8.590;2023-08-06T09:14:11;15.00;16.30
10304;DHT22;5197;48.152;8.590;2023-08-06T09:16:38;14.90;16.10
10304;DHT22;5197;48.152;8.590;2023-08-06T09:19:12;14.80;15.80
10304;DHT22;5197;48.152;8.590;2023-08-06T09:21:40;15.30;14.70
10304;DHT22;5197;48.152;8.590;2023-08-06T09:24:11;16.90;15.00
10304;DHT22;5197;48.152;8.590;2023-08-06T09:26:44;15.80;13.80
10304;DHT22;5197;48.152;8.590;2023-08-06T09:29:11;15.60;13.80
10304;DHT22;5197;48.152;8.590;2023-08-06T09:31:43;15.00;13.60
10304;DHT22;5197;48.152;8.590;2023-08-06T09:34:18;15.10;12.90
10304;DHT22;5197;48.152;8.590;2023-08-06T09:36:50;15.10;12.70
10304;DHT22;5197;48.152;8.590;2023-08-06T09:39:19;15.10;12.90
10304;DHT22;5197;48.152;8.590;2023-08-06T09:41:47;15.90;13.50
10304;DHT22;5197;48.152;8.590;2023-08-06T09:44:19;16.50;13.70
10304;DHT22;5197;48.152;8.590;2023-08-06T09:46:53;15.90;13.90
10304;DHT22;5197;48.152;8.590;2023-08-06T09:49:24;14.90;13.00
10304;DHT22;5197;48.152;8.590;2023-08-06T09:51:52;15.10;13.10
10304;DHT22;5197;48.152;8.590;2023-08-06T09:54:23;14.90;13.60
10304;DHT22;5197;48.152;8.590;2023-08-06T09:56:56;14.80;13.90
10304;DHT22;5197;48.152;8.590;2023-08-06T09:59:24;15.00;14.60
10304;DHT22;5197;48.152;8.590;2023-08-06T10:01:52;15.50;14.90
10304;DHT22;5197;48.152;8.590;2023-08-06T10:04:20;16.10;15.80
10304;DHT22;5197;48.152;8.590;2023-08-06T10:06:52;15.90;15.80
10304;DHT22;5197;48.152;8.590;2023-08-06T10:09:20;14.80;15.10
10304;DHT22;5197;48.152;8.590;2023-08-06T10:11:50;14.90;15.00
10304;DHT22;5197;48.152;8.590;2023-08-06T10:14:24;15.60;15.60
10304;DHT22;5197;48.152;8.590;2023-08-06T10:16:53;14.90;14.80
10304;DHT22;5197;48.152;8.590;2023-08-06T10:19:22;15.30;14.90
10304;DHT22;5197;48.152;8.590;2023-08-06T10:27:36;15.10;14.90
10304;DHT22;5197;48.152;8.590;2023-08-06T10:30:29;15.20;14.70
10304;DHT22;5197;48.152;8.590;2023-08-06T10:32:58;15.30;14.10
10304;DHT22;5197;48.152;8.590;2023-08-06T10:35:48;15.70;14.50
10304;DHT22;5197;48.152;8.590;2023-08-06T10:38:20;15.30;14.00
10304;DHT22;5197;48.152;8.590;2023-08-06T10:45:57;15.30;13.20
10304;DHT22;5197;48.152;8.590;2023-08-06T10:48:35;15.80;14.10
10304;DHT22;5197;48.152;8.590;2023-08-06T10:51:08;15.30;14.10
10304;DHT22;5197;48.152;8.590;2023-08-06T10:53:36;15.30;14.10
10304;DHT22;5197;48.152;8.590;2023-08-06T10:58:44;15.30;13.00
10304;DHT22;5197;48.152;8.590;2023-08-06T11:01:12;15.60;13.40
10304;DHT22;5197;48.152;8.590;2023-08-06T11:03:41;15.20;13.90
10304;DHT22;5197;48.152;8.590;2023-08-06T11:06:08;15.80;14.40
10304;DHT22;5197;48.152;8.590;2023-08-06T11:08:48;16.40;15.00
10304;DHT22;5197;48.152;8.590;2023-08-06T11:11:16;15.30;13.00
10304;DHT22;5197;48.152;8.590;2023-08-06T11:13:48;16.40;14.10
10304;DHT22;5197;48.152;8.590;2023-08-06T11:16:20;15.40;13.00
10304;DHT22;5197;48.152;8.590;2023-08-06T11:18:48;15.40;13.80
10304;DHT22;5197;48.152;8.590;2023-08-06T11:21:19;15.60;14.30
10304;DHT22;5197;48.152;8.590;2023-08-06T11:23:46;15.90;14.50
10304;DHT22;5197;48.152;8.590;2023-08-06T11:26:19;14.80;14.50
10304;DHT22;5197;48.152;8.590;2023-08-06T11:28:46;15.30;14.00
10304;DHT22;5197;48.152;8.590;2023-08-06T11:31:23;15.70;14.80
10304;DHT22;5197;48.152;8.590;2023-08-06T11:33:55;14.50;13.70
10304;DHT22;5197;48.152;8.590;2023-08-06T11:36:32;14.50;14.30
10304;DHT22;5197;48.152;8.590;2023-08-06T11:39:00;14.50;14.30
10304;DHT22;5197;48.152;8.590;2023-08-06T11:41:30;15.70;15.80
10304;DHT22;5197;48.152;8.590;2023-08-06T11:44:00;14.60;15.80
10304;DHT22;5197;48.152;8.590;2023-08-06T11:46:27;14.20;15.80
10304;DHT22;5197;48.152;8.590;2023-08-06T11:48:56;16.20;17.00
10304;DHT22;5197;48.152;8.590;2023-08-06T11:51:23;14.20;15.80
10304;DHT22;5197;48.152;8.590;2023-08-06T11:53:58;14.20;15.30
10304;DHT22;5197;48.152;8.590;2023-08-06T11:56:27;14.10;14.90
10304;DHT22;5197;48.152;8.590;2023-08-06T11:58:54;15.70;15.80
10304;DHT22;5197;48.152;8.590;2023-08-06T12:01:22;13.90;15.40
10304;DHT22;5197;48.152;8.590;2023-08-06T12:03:49;14.10;15.90
10304;DHT22;5197;48.152;8.590;2023-08-06T12:06:16;14.00;14.60
10304;DHT22;5197;48.152;8.590;2023-08-06T12:08:42;13.70;14.60
10304;DHT22;5197;48.152;8.590;2023-08-06T12:11:09;16.10;16.70
10304;DHT22;5197;48.152;8.590;2023-08-06T12:13:36;14.50;15.10
10304;DHT22;5197;48.152;8.590;2023-08-06T12:16:04;13.90;15.10
10304;DHT22;5197;48.152;8.590;2023-08-06T12:18:31;14.30;15.30
10304;DHT22;5197;48.152;8.590;2023-08-06T12:20:58;15.50;17.00
10304;DHT22;5197;48.152;8.590;2023-08-06T12:23:25;13.60;12.70
10304;DHT22;5197;48.152;8.590;2023-08-06T12:25:52;14.70;15.70
10304;DHT22;5197;48.152;8.590;2023-08-06T12:28:19;14.10;19.60
10304;DHT22;5197;48.152;8.590;2023-08-06T12:30:49;13.60;19.80
10304;DHT22;5197;48.152;8.590;2023-08-06T12:33:17;14.70;24.00
10304;DHT22;5197;48.152;8.590;2023-08-06T12:35:44;15.90;18.60
10304;DHT22;5197;48.152;8.590;2023-08-06T12:38:11;14.30;17.30
10304;DHT22;5197;48.152;8.590;2023-08-06T12:40:38;14.10;12.80
10304;DHT22;5197;48.152;8.590;2023-08-06T12:43:09;14.50;15.30
10304;DHT22;5197;48.152;8.590;2023-08-06T12:45:36;14.30;11.30
10304;DHT22;5197;48.152;8.590;2023-08-06T12:48:03;16.20;13.50
10304;DHT22;5197;48.152;8.590;2023-08-06T12:50:30;14.20;13.10
10304;DHT22;5197;48.152;8.590;2023-08-06T12:52:59;15.30;11.50
10304;DHT22;5197;48.152;8.590;2023-08-06T12:55:27;14.20;12.80
10304;DHT22;5197;48.152;8.590;2023-08-06T12:57:57;16.10;11.70
10304;DHT22;5197;48.152;8.590;2023-08-06T13:00:26;14.30;9.60
10304;DHT22;5197;48.152;8.590;2023-08-06T13:02:53;15.20;7.60
10304;DHT22;5197;48.152;8.590;2023-08-06T13:05:20;14.30;9.10
10304;DHT22;5197;48.152;8.590;2023-08-06T13:07:47;15.20;9.10
10304;DHT22;5197;48.152;8.590;2023-08-06T13:10:14;14.30;5.70
10304;DHT22;5197;48.152;8.590;2023-08-06T13:12:41;14.50;7.90
10304;DHT22;5197;48.152;8.590;2023-08-06T13:15:08;14.30;7.50
10304;DHT22;5197;48.152;8.590;2023-08-06T13:17:36;14.20;6.00
10304;DHT22;5197;48.152;8.590;2023-08-06T13:20:03;15.00;8.10
10304;DHT22;5197;48.152;8.590;2023-08-06T13:22:30;13.90;9.60
10304;DHT22;5197;48.152;8.590;2023-08-06T13:24:57;13.90;10.40
10304;DHT22;5197;48.152;8.590;2023-08-06T13:27:24;14.50;13.20
10304;DHT22;5197;48.152;8.590;2023-08-06T13:29:51;13.50;14.30
10304;DHT22;5197;48.152;8.590;2023-08-06T13:32:18;15.30;15.50
10304;DHT22;5197;48.152;8.590;2023-08-06T13:34:45;13.90;16.90
10304;DHT22;5197;48.152;8.590;2023-08-06T13:37:12;16.30;16.40
10304;DHT22;5197;48.152;8.590;2023-08-06T13:39:38;15.50;12.60
10304;DHT22;5197;48.152;8.590;2023-08-06T13:42:06;13.80;12.70
10304;DHT22;5197;48.152;8.590;2023-08-06T13:44:33;13.70;13.30
10304;DHT22;5197;48.152;8.590;2023-08-06T13:47:02;13.80;12.40
10304;DHT22;5197;48.152;8.590;2023-08-06T13:49:29;13.80;13.10
10304;DHT22;5197;48.152;8.590;2023-08-06T13:51:56;14.50;12.40
10304;DHT22;5197;48.152;8.590;2023-08-06T13:54:37;13.80;11.70
10304;DHT22;5197;48.152;8.590;2023-08-06T13:57:04;13.90;12.10
10304;DHT22;5197;48.152;8.590;2023-08-06T13:59:31;14.50;12.60
10304;DHT22;5197;48.152;8.590;2023-08-06T14:01:58;15.30;12.00
10304;DHT22;5197;48.152;8.590;2023-08-06T14:04:26;14.10;11.10
10304;DHT22;5197;48.152;8.590;2023-08-06T14:06:53;16.60;12.00
10304;DHT22;5197;48.152;8.590;2023-08-06T14:09:20;16.00;12.60
10304;DHT22;5197;48.152;8.590;2023-08-06T14:11:47;14.20;10.20
10304;DHT22;5197;48.152;8.590;2023-08-06T14:14:14;15.20;10.70
10304;DHT22;5197;48.152;8.590;2023-08-06T14:16:41;14.00;9.60
10304;DHT22;5197;48.152;8.590;2023-08-06T14:19:08;14.00;9.90
10304;DHT22;5197;48.152;8.590;2023-08-06T14:21:35;14.00;9.60
10304;DHT22;5197;48.152;8.590;2023-08-06T14:24:02;13.80;9.00
10304;DHT22;5197;48.152;8.590;2023-08-06T14:26:29;13.80;9.40
10304;DHT22;5197;48.152;8.590;2023-08-06T14:28:56;13.80;10.30
10304;DHT22;5197;48.152;8.590;2023-08-06T14:31:23;14.60;10.50
10304;DHT22;5197;48.152;8.590;2023-08-06T14:33:50;14.20;9.00
10304;DHT22;5197;48.152;8.590;2023-08-06T14:36:18;14.80;3.40
10304;DHT22;5197;48.152;8.590;2023-08-06T14:38:45;14.30;4.60
10304;DHT22;5197;48.152;8.590;2023-08-06T14:41:25;14.20;4.70
10304;DHT22;5197;48.152;8.590;2023-08-06T14:43:52;14.30;4.60
10304;DHT22;5197;48.152;8.590;2023-08-06T14:46:20;14.20;1.00
10304;DHT22;5197;48.152;8.590;2023-08-06T14:48:47;14.30;2.60
10304;DHT22;5197;48.152;8.590;2023-08-06T14:51:14;14.30;2.20
10304;DHT22;5197;48.152;8.590;2023-08-06T14:53:41;16.30;2.70
10304;DHT22;5197;48.152;8.590;2023-08-06T14:56:08;14.50;1.00
10304;DHT22;5197;48.152;8.590;2023-08-06T14:58:35;14.10;2.10
10304;DHT22;5197;48.152;8.590;2023-08-06T15:01:02;14.20;3.40
10304;DHT22;5197;48.152;8.590;2023-08-06T15:03:29;14.50;1.00
10304;DHT22;5197;48.152;8.590;2023-08-06T15:05:58;14.40;2.90
10304;DHT22;5197;48.152;8.590;2023-08-06T15:08:25;13.70;3.70
10304;DHT22;5197;48.152;8.590;2023-08-06T15:10:52;13.80;3.90
10304;DHT22;5197;48.152;8.590;2023-08-06T15:13:20;13.80;1.40
10304;DHT22;5197;48.152;8.590;2023-08-06T15:15:47;13.80;2.30
10304;DHT22;5197;48.152;8.590;2023-08-06T15:18:14;14.00;1.60
10304;DHT22;5197;48.152;8.590;2023-08-06T15:20:41;15.00;1.20
10304;DHT22;5197;48.152;8.590;2023-08-06T15:23:08;14.30;1.00
10304;DHT22;5197;48.152;8.590;2023-08-06T15:25:37;14.90;1.00
10304;DHT22;5197;48.152;8.590;2023-08-06T15:28:04;14.50;1.00
10304;DHT22;5197;48.152;8.590;2023-08-06T15:30:33;15.40;1.20
10304;DHT22;5197;48.152;8.590;2023-08-06T15:33:00;14.60;1.00
10304;DHT22;5197;48.152;8.590;2023-08-06T15:35:27;15.40;1.20
10304;DHT22;5197;48.152;8.590;2023-08-06T15:37:53;14.90;1.00
10304;DHT22;5197;48.152;8.590;2023-08-06T15:40:21;15.80;1.00
10304;DHT22;5197;48.152;8.590;2023-08-06T15:42:48;16.60;1.50
10304;DHT22;5197;48.152;8.590;2023-08-06T15:45:15;15.00;1.00
10304;DHT22;5197;48.152;8.590;2023-08-06T15:47:42;15.20;1.00
10304;DHT22;5197;48.152;8.590;2023-08-06T15:50:09;15.10;1.00
10304;DHT22;5197;48.152;8.590;2023-08-06T15:52:37;15.00;1.00
10304;DHT22;5197;48.152;8.590;2023-08-06T15:55:04;14.90;1.00
10304;DHT22;5197;48.152;8.590;2023-08-06T15:57:33;15.00;1.00
10304;DHT22;5197;48.152;8.590;2023-08-06T16:00:00;14.90;1.00
10304;DHT22;5197;48.152;8.590;2023-08-06T16:02:27;16.50;1.90
10304;DHT22;5197;48.152;8.590;2023-08-06T16:04:56;14.90;1.00
10304;DHT22;5197;48.152;8.590;2023-08-06T16:07:23;16.10;1.60
10304;DHT22;5197;48.152;8.590;2023-08-06T16:09:52;14.90;1.00
10304;DHT22;5197;48.152;8.590;2023-08-06T16:12:19;14.90;1.00